createdAt,value
2022-10-14T00:01:27.213Z,92.05
2022-10-14T00:04:06.127Z,91.85
2022-10-14T00:06:34.892Z,91.73
2022-10-14T00:09:07.494Z,91.83
2022-10-14T00:11:37.395Z,91.88
2022-10-14T00:14:13.724Z,91.74
2022-10-14T00:16:44.585Z,91.57
2022-10-14T00:19:13.886Z,91.65
2022-10-14T00:21:44.720Z,92.04
2022-10-14T00:24:16.119Z,92.15
2022-10-14T00:26:44.238Z,92.01
2022-10-14T00:29:18.750Z,92.09
2022-10-14T00:31:47.454Z,92.06
2022-10-14T00:34:16.848Z,91.99
2022-10-14T00:36:45.517Z,91.91
2022-10-14T00:39:17.393Z,91.74
2022-10-14T00:41:45.687Z,91.71
2022-10-14T00:44:13.597Z,91.62
2022-10-14T00:46:47.201Z,91.42
2022-10-14T00:49:18.933Z,91.34
2022-10-14T00:51:51.881Z,91.29
2022-10-14T00:54:24.558Z,91.26
2022-10-14T00:56:53.280Z,91.27
2022-10-14T00:59:21.725Z,91.16
2022-10-14T01:01:49.650Z,91.02
2022-10-14T01:04:17.865Z,90.95
2022-10-14T01:07:08.957Z,90.98
2022-10-14T01:09:51.079Z,90.72
2022-10-14T01:12:29.005Z,90.73
2022-10-14T01:15:05.085Z,90.82
2022-10-14T01:17:46.275Z,90.68
2022-10-14T01:20:38.147Z,90.69
2022-10-14T01:23:21.250Z,90.58
2022-10-14T01:26:10.944Z,90.45
2022-10-14T01:29:14.958Z,90.29
2022-10-14T01:31:48.859Z,90.30
2022-10-14T01:34:27.383Z,90.39
2022-10-14T01:37:01.157Z,90.38
2022-10-14T01:39:41.649Z,90.38
2022-10-14T01:42:15.742Z,90.35
2022-10-14T01:44:50.283Z,90.41
2022-10-14T01:47:21.177Z,90.24
2022-10-14T01:49:58.933Z,90.19
2022-10-14T01:52:33.855Z,90.18
2022-10-14T01:55:06.609Z,89.86
2022-10-14T01:57:38.603Z,89.89
2022-10-14T02:00:07.932Z,89.90
2022-10-14T02:02:42.312Z,89.94
2022-10-14T02:05:19.551Z,89.91
2022-10-14T02:07:58.609Z,89.79
2022-10-14T02:11:15.512Z,89.68
2022-10-14T02:13:55.597Z,89.68
2022-10-14T02:16:40.923Z,89.80
2022-10-14T02:19:23.070Z,89.88
2022-10-14T02:22:08.549Z,89.76
2022-10-14T02:24:42.491Z,89.70
2022-10-14T02:27:18.514Z,89.64
2022-10-14T02:29:48.538Z,89.56
2022-10-14T02:32:20.189Z,89.58
2022-10-14T02:34:54.980Z,89.63
2022-10-14T02:37:25.746Z,89.64
2022-10-14T02:40:18.101Z,89.82
2022-10-14T02:42:46.199Z,90.12
2022-10-14T02:45:15.870Z,90.59
2022-10-14T02:47:46.383Z,90.61
2022-10-14T02:50:14.949Z,90.43
2022-10-14T02:52:42.749Z,90.35
2022-10-14T02:55:11.118Z,90.39
2022-10-14T02:57:39.072Z,90.22
2022-10-14T03:00:07.755Z,90.06
2022-10-14T03:02:35.681Z,89.93
2022-10-14T03:05:04.992Z,89.86
2022-10-14T03:07:32.977Z,89.90
2022-10-14T03:10:03.546Z,89.90
2022-10-14T03:12:32.643Z,90.05
2022-10-14T03:15:01.124Z,90.15
2022-10-14T03:17:30.728Z,90.07
2022-10-14T03:20:04.303Z,89.98
2022-10-14T03:22:33.964Z,89.91
2022-10-14T03:25:01.886Z,90.00
2022-10-14T03:27:43.925Z,89.86
2022-10-14T03:30:15.494Z,89.79
2022-10-14T03:32:53.916Z,89.86
2022-10-14T03:35:30.538Z,89.91
2022-10-14T03:38:02.199Z,90.01
2022-10-14T03:40:31.409Z,89.91
2022-10-14T03:43:01.508Z,89.90
2022-10-14T03:45:34.903Z,90.03
2022-10-14T03:48:03.693Z,90.06
2022-10-14T03:50:31.780Z,90.14
2022-10-14T03:53:00.447Z,90.09
2022-10-14T03:55:33.922Z,90.24
2022-10-14T03:58:02.114Z,90.43
2022-10-14T04:00:30.175Z,90.60
2022-10-14T04:03:26.318Z,91.03
2022-10-14T04:05:55.675Z,90.90
2022-10-14T04:08:24.510Z,90.98
2022-10-14T04:11:02.238Z,91.54
2022-10-14T04:13:33.244Z,91.67
2022-10-14T04:16:09.904Z,91.43
2022-10-14T04:18:45.056Z,91.58
2022-10-14T04:21:13.403Z,91.83
2022-10-14T04:23:42.812Z,91.61
2022-10-14T04:26:15.720Z,91.39
2022-10-14T04:28:44.276Z,91.34
2022-10-14T04:31:20.462Z,91.35
2022-10-14T04:33:55.803Z,91.27
2022-10-14T04:36:28.877Z,91.36
2022-10-14T04:38:57.582Z,91.26
2022-10-14T04:41:25.419Z,91.24
2022-10-14T04:43:53.617Z,91.46
2022-10-14T04:46:31.487Z,91.57
2022-10-14T04:48:59.491Z,91.25
2022-10-14T04:51:30.532Z,91.18
2022-10-14T04:54:18.627Z,91.12
2022-10-14T04:56:51.756Z,91.26
2022-10-14T04:59:20.682Z,91.31
2022-10-14T05:02:10.646Z,91.46
2022-10-14T05:04:48.018Z,91.44
2022-10-14T05:07:16.708Z,91.19
2022-10-14T05:09:48.641Z,91.32
2022-10-14T05:12:35.477Z,91.51
2022-10-14T05:15:05.536Z,91.39
2022-10-14T05:17:39.717Z,91.29
2022-10-14T05:20:09.315Z,91.24
2022-10-14T05:22:38.532Z,91.22
2022-10-14T05:25:06.963Z,91.22
2022-10-14T05:27:40.894Z,91.04
2022-10-14T05:30:10.094Z,90.99
2022-10-14T05:32:41.302Z,91.06
2022-10-14T05:35:09.623Z,90.95
2022-10-14T05:37:39.533Z,90.90
2022-10-14T05:40:08.829Z,90.82
2022-10-14T05:42:37.729Z,90.64
2022-10-14T05:45:07.008Z,90.63
2022-10-14T05:47:37.047Z,90.58
2022-10-14T05:50:13.375Z,90.57
2022-10-14T05:52:43.113Z,90.45
2022-10-14T05:55:16.864Z,90.41
2022-10-14T05:57:46.159Z,90.31
2022-10-14T06:00:24.721Z,90.18
2022-10-14T06:02:56.964Z,90.12
2022-10-14T06:05:25.513Z,90.22
2022-10-14T06:07:53.761Z,90.24
2022-10-14T06:10:21.694Z,90.00
2022-10-14T06:12:49.698Z,90.15
2022-10-14T06:15:17.452Z,90.00
2022-10-14T06:17:45.385Z,89.92
2022-10-14T06:20:13.223Z,89.84
2022-10-14T06:22:41.464Z,89.83
2022-10-14T06:25:09.849Z,89.77
2022-10-14T06:27:37.617Z,89.74
2022-10-14T06:30:06.389Z,89.61
2022-10-14T06:32:34.152Z,89.57
2022-10-14T06:35:02.367Z,89.50
2022-10-14T06:37:30.086Z,89.41
2022-10-14T06:39:58.078Z,89.30
2022-10-14T06:42:26.610Z,89.29
2022-10-14T06:44:54.684Z,89.20
2022-10-14T06:47:22.480Z,89.07
2022-10-14T06:49:50.349Z,88.83
2022-10-14T06:52:18.320Z,88.73
2022-10-14T06:54:48.449Z,88.64
2022-10-14T06:57:17.044Z,88.69
2022-10-14T06:59:45.180Z,88.64
2022-10-14T07:02:13.063Z,88.55
2022-10-14T07:04:41.234Z,88.46
2022-10-14T07:07:09.380Z,88.35
2022-10-14T07:09:37.393Z,88.21
2022-10-14T07:12:05.215Z,88.10
2022-10-14T07:14:33.108Z,88.03
2022-10-14T07:17:01.146Z,87.96
2022-10-14T07:19:28.923Z,87.65
2022-10-14T07:21:56.810Z,87.48
2022-10-14T07:24:24.898Z,87.42
2022-10-14T07:26:52.906Z,87.46
2022-10-14T07:29:20.730Z,87.05
2022-10-14T07:31:48.581Z,86.93
2022-10-14T07:34:16.756Z,86.91
2022-10-14T07:36:44.724Z,86.66
2022-10-14T07:39:13.253Z,86.65
2022-10-14T07:41:41.119Z,86.65
2022-10-14T07:44:12.982Z,86.55
2022-10-14T07:46:43.447Z,86.59
2022-10-14T07:49:14.383Z,86.46
2022-10-14T07:51:43.122Z,86.34
2022-10-14T07:54:17.854Z,86.33
2022-10-14T07:56:46.886Z,86.26
2022-10-14T07:59:15.693Z,86.29
2022-10-14T08:01:45.780Z,86.29
2022-10-14T08:04:13.994Z,85.95
2022-10-14T08:06:42.233Z,85.86
2022-10-14T08:09:11.829Z,85.68
2022-10-14T08:11:40.056Z,85.60
2022-10-14T08:14:07.907Z,85.58
2022-10-14T08:16:36.473Z,85.79
2022-10-14T08:19:13.422Z,85.80
2022-10-14T08:21:43.549Z,85.69
2022-10-14T08:24:11.864Z,85.76
2022-10-14T08:26:49.007Z,85.65
2022-10-14T08:29:17.237Z,85.65
2022-10-14T08:31:45.126Z,85.58
2022-10-14T08:34:12.953Z,85.66
2022-10-14T08:36:41.227Z,85.65
2022-10-14T08:42:02.358Z,84.95
2022-10-14T08:44:55.507Z,85.02
2022-10-14T08:47:30.504Z,84.99
2022-10-14T08:50:04.768Z,84.89
2022-10-14T08:52:40.853Z,84.64
2022-10-14T08:55:23.963Z,84.47
2022-10-14T08:58:01.666Z,84.54
2022-10-14T09:00:32.262Z,84.81
2022-10-14T09:03:10.410Z,84.67
2022-10-14T09:05:39.675Z,84.46
2022-10-14T09:08:16.222Z,84.40
2022-10-14T09:10:44.831Z,84.22
2022-10-14T09:13:27.543Z,83.88
2022-10-14T09:16:02.844Z,83.58
2022-10-14T09:18:45.190Z,83.25
2022-10-14T09:21:51.585Z,82.76
2022-10-14T09:24:35.778Z,81.57
2022-10-14T09:27:11.666Z,81.65
2022-10-14T09:29:53.785Z,81.59
2022-10-14T09:32:30.838Z,81.95
2022-10-14T09:34:59.865Z,81.79
2022-10-14T09:37:28.915Z,81.47
2022-10-14T09:40:02.326Z,81.30
2022-10-14T09:42:49.157Z,80.77
2022-10-14T09:45:22.795Z,80.45
2022-10-14T09:47:59.484Z,80.73
2022-10-14T09:50:36.117Z,79.80
2022-10-14T09:53:10.813Z,79.97
2022-10-14T09:55:53.384Z,80.04
2022-10-14T09:58:33.126Z,80.19
2022-10-14T10:01:02.466Z,79.87
2022-10-14T10:03:35.652Z,79.51
2022-10-14T10:06:08.456Z,78.11
2022-10-14T10:08:53.970Z,77.33
2022-10-14T10:11:29.528Z,77.10
2022-10-14T10:13:58.067Z,77.81
2022-10-14T10:16:31.344Z,76.99
2022-10-14T10:19:35.840Z,76.57
2022-10-14T10:22:26.688Z,76.83
2022-10-14T10:25:01.190Z,75.22
2022-10-14T10:27:35.573Z,74.10
2022-10-14T10:30:12.698Z,74.55
2022-10-14T10:32:47.112Z,74.31
2022-10-14T10:35:29.796Z,72.98
2022-10-14T10:38:21.925Z,73.33
2022-10-14T10:41:22.652Z,72.72
2022-10-14T10:44:12.280Z,72.57
2022-10-14T10:46:46.084Z,72.18
2022-10-14T10:49:32.790Z,72.05
2022-10-14T10:52:08.851Z,71.86
2022-10-14T10:55:10.514Z,71.64
2022-10-14T10:57:46.697Z,71.93
2022-10-14T11:00:21.216Z,71.89
2022-10-14T11:03:34.115Z,71.99
2022-10-14T11:06:13.041Z,70.92
2022-10-14T11:09:12.657Z,70.77
2022-10-14T11:12:13.900Z,70.83
2022-10-14T11:15:03.988Z,71.00
2022-10-14T11:18:09.132Z,70.71
2022-10-14T11:20:40.270Z,70.64
2022-10-14T11:23:19.400Z,70.77
2022-10-14T11:26:02.838Z,70.52
2022-10-14T11:28:42.932Z,70.40
2022-10-14T11:31:33.771Z,69.98
2022-10-14T11:34:19.981Z,69.46
2022-10-14T11:37:03.124Z,69.68
2022-10-14T11:39:42.695Z,68.88
2022-10-14T11:42:26.381Z,68.44
2022-10-14T11:45:26.524Z,67.40
2022-10-14T11:48:10.328Z,67.33
2022-10-14T11:50:45.129Z,67.65
2022-10-14T11:56:34.765Z,67.66
2022-10-14T11:59:52.922Z,67.34
2022-10-14T12:02:50.663Z,67.24
2022-10-14T12:05:25.769Z,66.53
2022-10-14T12:08:05.763Z,65.90
2022-10-14T12:10:48.068Z,65.15
2022-10-14T12:13:20.659Z,65.22
2022-10-14T12:15:53.221Z,64.87
2022-10-14T12:18:21.916Z,63.95
2022-10-14T12:21:13.923Z,63.88
2022-10-14T12:23:55.674Z,63.79
2022-10-14T12:26:23.703Z,63.15
2022-10-14T12:28:54.089Z,63.44
2022-10-14T12:31:47.991Z,63.02
2022-10-14T12:34:25.362Z,62.87
2022-10-14T12:36:53.193Z,61.36
2022-10-14T12:39:31.946Z,60.96
2022-10-14T12:42:26.365Z,60.67
2022-10-14T12:44:58.637Z,61.54
2022-10-14T12:47:35.137Z,62.49
2022-10-14T12:50:22.940Z,61.69
2022-10-14T12:53:02.073Z,60.46
2022-10-14T12:55:49.067Z,60.52
2022-10-14T12:58:24.782Z,60.94
2022-10-14T13:00:56.035Z,61.52
2022-10-14T13:03:31.068Z,61.88
2022-10-14T13:06:35.617Z,61.86
2022-10-14T13:09:12.437Z,62.01
2022-10-14T13:11:42.374Z,62.12
2022-10-14T13:14:25.450Z,61.73
2022-10-14T13:16:53.149Z,60.34
2022-10-14T13:19:33.370Z,60.23
2022-10-14T13:22:22.894Z,60.04
2022-10-14T13:24:51.934Z,60.38
2022-10-14T13:27:33.315Z,60.18
2022-10-14T13:30:06.152Z,60.50
2022-10-14T13:32:39.909Z,60.92
2022-10-14T13:35:32.186Z,60.30
2022-10-14T13:38:06.690Z,59.56
2022-10-14T13:40:39.003Z,59.58
2022-10-14T13:43:13.044Z,60.02
2022-10-14T13:45:45.388Z,59.11
2022-10-14T13:48:17.199Z,58.43
2022-10-14T13:50:50.572Z,57.89
2022-10-14T13:53:21.890Z,57.73
2022-10-14T13:55:54.597Z,56.92
2022-10-14T13:58:24.492Z,57.19
2022-10-14T14:01:02.359Z,58.01
2022-10-14T14:03:36.818Z,58.76
2022-10-14T14:06:15.235Z,58.71
2022-10-14T14:09:19.107Z,59.23
2022-10-14T14:11:49.398Z,59.31
2022-10-14T14:14:23.533Z,59.67
2022-10-14T14:16:59.761Z,59.73
2022-10-14T14:19:34.229Z,59.81
2022-10-14T14:22:29.482Z,59.50
2022-10-14T14:25:46.786Z,59.49
2022-10-14T14:28:17.282Z,59.57
2022-10-14T14:30:55.110Z,59.81
2022-10-14T14:33:43.096Z,60.03
2022-10-14T14:36:27.792Z,60.30
2022-10-14T14:39:06.247Z,60.05
2022-10-14T14:41:34.628Z,59.85
2022-10-14T14:44:25.567Z,60.15
2022-10-14T14:46:58.388Z,59.92
2022-10-14T14:49:30.539Z,59.87
2022-10-14T14:52:01.108Z,60.02
2022-10-14T14:54:29.805Z,59.98
2022-10-14T14:57:01.350Z,60.09
2022-10-14T14:59:42.315Z,60.10
2022-10-14T15:02:22.513Z,60.25
2022-10-14T15:05:11.646Z,61.77
2022-10-14T15:07:43.807Z,61.95
2022-10-14T15:10:24.172Z,62.05
2022-10-14T15:12:56.441Z,61.64
2022-10-14T15:15:34.434Z,61.54
2022-10-14T15:18:26.221Z,61.80
2022-10-14T15:21:12.383Z,61.75
2022-10-14T15:23:42.377Z,62.00
2022-10-14T15:26:24.382Z,62.30
2022-10-14T15:29:06.719Z,62.54
2022-10-14T15:31:36.412Z,62.96
2022-10-14T15:34:05.279Z,63.14
2022-10-14T15:36:34.938Z,63.37
2022-10-14T15:39:03.058Z,63.78
2022-10-14T15:41:31.026Z,64.38
2022-10-14T15:43:58.778Z,64.64
2022-10-14T15:47:01.985Z,64.81
2022-10-14T15:49:38.157Z,65.42
2022-10-14T15:52:05.905Z,65.70
2022-10-14T15:54:33.981Z,66.12
2022-10-14T15:57:02.152Z,66.51
2022-10-14T15:59:30.031Z,67.02
2022-10-14T16:01:59.074Z,67.29
2022-10-14T16:04:28.931Z,68.07
2022-10-14T16:06:57.794Z,68.41
2022-10-14T16:09:29.131Z,68.73
2022-10-14T16:11:59.711Z,68.95
2022-10-14T16:14:27.969Z,70.15
2022-10-14T16:16:55.844Z,69.73
2022-10-14T16:19:23.699Z,70.28
2022-10-14T16:21:51.449Z,70.49
2022-10-14T16:24:25.442Z,71.47
2022-10-14T16:26:54.262Z,72.43
2022-10-14T16:29:22.071Z,72.31
2022-10-14T16:31:51.118Z,73.67
2022-10-14T16:34:22.723Z,73.52
2022-10-14T16:36:51.759Z,73.55
2022-10-14T16:39:20.078Z,73.08
2022-10-14T16:41:49.870Z,73.94
2022-10-14T16:44:27.583Z,74.14
2022-10-14T16:47:16.108Z,73.93
2022-10-14T16:49:45.954Z,74.53
2022-10-14T16:52:14.757Z,75.28
2022-10-14T16:54:42.912Z,75.62
2022-10-14T16:57:11.266Z,76.44
2022-10-14T16:59:39.631Z,76.16
2022-10-14T17:02:11.334Z,77.61
2022-10-14T17:04:46.676Z,77.36
2022-10-14T17:07:17.491Z,78.05
2022-10-14T17:09:45.178Z,77.94
2022-10-14T17:12:14.272Z,78.18
2022-10-14T17:14:43.119Z,78.48
2022-10-14T17:17:12.614Z,78.29
2022-10-14T17:19:41.574Z,78.47
2022-10-14T17:22:09.375Z,78.98
2022-10-14T17:24:42.664Z,79.08
2022-10-14T17:27:11.201Z,79.33
2022-10-14T17:29:39.522Z,78.45
2022-10-14T17:32:07.455Z,79.17
2022-10-14T17:34:35.251Z,80.01
2022-10-14T17:37:05.456Z,81.18
2022-10-14T17:39:33.528Z,80.38
2022-10-14T17:42:01.269Z,80.73
2022-10-14T17:44:29.113Z,80.42
2022-10-14T17:46:57.248Z,81.32
2022-10-14T17:49:25.070Z,80.89
2022-10-14T17:51:52.907Z,81.26
2022-10-14T17:54:20.935Z,81.21
2022-10-14T17:56:48.779Z,81.22
2022-10-14T17:59:16.589Z,81.51
2022-10-14T18:02:01.624Z,82.27
2022-10-14T18:04:32.741Z,82.67
2022-10-14T18:07:01.500Z,83.23
2022-10-14T18:09:29.482Z,82.67
2022-10-14T18:12:13.075Z,83.15
2022-10-14T18:14:41.644Z,84.18
2022-10-14T18:17:12.402Z,84.42
2022-10-14T18:19:41.690Z,83.63
2022-10-14T18:22:11.333Z,84.45
2022-10-14T18:24:39.570Z,85.00
2022-10-14T18:27:07.445Z,85.94
2022-10-14T18:29:35.317Z,86.13
2022-10-14T18:32:04.318Z,85.67
2022-10-14T18:34:32.323Z,85.65
2022-10-14T18:37:00.096Z,84.96
2022-10-14T18:39:27.860Z,84.52
2022-10-14T18:41:55.687Z,84.66
2022-10-14T18:44:23.458Z,84.39
2022-10-14T18:46:51.397Z,84.44
2022-10-14T18:49:19.301Z,84.94
2022-10-14T18:51:47.134Z,85.25
2022-10-14T18:54:17.746Z,86.58
2022-10-14T18:56:45.814Z,86.05
2022-10-14T18:59:19.344Z,86.95
2022-10-14T19:01:52.019Z,86.92
2022-10-14T19:04:22.891Z,87.56
2022-10-14T19:06:51.019Z,87.73
2022-10-14T19:09:21.763Z,87.87
2022-10-14T19:11:50.501Z,86.37
2022-10-14T19:14:18.633Z,86.27
2022-10-14T19:16:47.808Z,86.67
2022-10-14T19:19:18.711Z,86.26
2022-10-14T19:21:54.562Z,86.28
2022-10-14T19:24:22.573Z,86.29
2022-10-14T19:26:50.500Z,86.71
2022-10-14T19:29:18.309Z,86.50
2022-10-14T19:31:46.503Z,86.29
2022-10-14T19:34:16.269Z,86.46
2022-10-14T19:36:44.637Z,86.95
2022-10-14T19:39:15.215Z,87.22
2022-10-14T19:41:44.866Z,88.15
2022-10-14T19:44:14.526Z,87.74
2022-10-14T19:46:44.042Z,88.71
2022-10-14T19:49:13.793Z,88.65
2022-10-14T19:51:42.868Z,87.96
2022-10-14T19:54:12.502Z,88.61
2022-10-14T19:56:41.091Z,88.04
2022-10-14T19:59:09.666Z,88.02
2022-10-14T20:01:37.527Z,88.68
2022-10-14T20:04:05.451Z,88.98
2022-10-14T20:06:35.794Z,88.78
2022-10-14T20:09:05.100Z,88.98
2022-10-14T20:11:34.152Z,89.82
2022-10-14T20:14:02.024Z,89.14
2022-10-14T20:16:30.116Z,89.47
2022-10-14T20:18:58.668Z,89.22
2022-10-14T20:21:26.880Z,89.32
2022-10-14T20:23:54.821Z,89.32
2022-10-14T20:26:22.630Z,89.20
2022-10-14T20:28:51.284Z,89.35
2022-10-14T20:31:22.042Z,89.20
2022-10-14T20:33:49.945Z,89.49
2022-10-14T20:36:20.531Z,89.45
2022-10-14T20:38:50.434Z,89.63
2022-10-14T20:41:24.973Z,89.81
2022-10-14T20:43:54.245Z,90.11
2022-10-14T20:46:24.707Z,90.70
2022-10-14T20:48:57.426Z,90.29
2022-10-14T20:51:27.165Z,90.50
2022-10-14T20:54:01.644Z,89.93
2022-10-14T20:56:33.752Z,89.99
2022-10-14T20:59:05.278Z,89.66
2022-10-14T21:01:36.801Z,89.57
2022-10-14T21:04:07.397Z,89.43
2022-10-14T21:06:36.255Z,89.46
2022-10-14T21:09:04.977Z,89.38
2022-10-14T21:11:33.016Z,89.71
2022-10-14T21:14:01.697Z,90.09
2022-10-14T21:16:35.723Z,89.68
2022-10-14T21:19:09.257Z,89.47
2022-10-14T21:21:41.611Z,89.77
2022-10-14T21:24:14.539Z,89.61
2022-10-14T21:26:42.509Z,89.34
2022-10-14T21:29:10.644Z,89.41
2022-10-14T21:31:39.241Z,89.42
2022-10-14T21:34:07.541Z,90.07
2022-10-14T21:36:36.544Z,89.69
2022-10-14T21:39:13.340Z,89.74
2022-10-14T21:41:42.214Z,89.74
2022-10-14T21:44:14.661Z,89.74
2022-10-14T21:46:42.651Z,89.73
2022-10-14T21:49:10.951Z,89.91
2022-10-14T21:51:39.372Z,90.00
2022-10-14T21:54:07.761Z,90.03
2022-10-14T21:56:35.593Z,90.04
2022-10-14T21:59:04.444Z,90.17
2022-10-14T22:01:32.325Z,90.09
2022-10-14T22:04:05.979Z,90.08
2022-10-14T22:06:36.085Z,89.94
2022-10-14T22:09:07.012Z,89.85
2022-10-14T22:11:39.795Z,90.12
2022-10-14T22:14:12.281Z,89.82
2022-10-14T22:16:40.807Z,89.96
2022-10-14T22:19:10.580Z,90.35
2022-10-14T22:21:40.703Z,90.24
2022-10-14T22:24:09.749Z,90.30
2022-10-14T22:26:38.107Z,90.34
2022-10-14T22:29:10.717Z,90.39
2022-10-14T22:31:38.816Z,90.45
2022-10-14T22:34:08.224Z,90.66
2022-10-14T22:36:36.901Z,90.61
2022-10-14T22:39:08.984Z,90.47
2022-10-14T22:41:36.788Z,90.41
2022-10-14T22:44:05.868Z,90.45
2022-10-14T22:46:35.913Z,90.49
2022-10-14T22:49:04.566Z,90.48
2022-10-14T22:51:36.314Z,90.50
2022-10-14T22:54:04.440Z,90.35
2022-10-14T22:56:32.549Z,90.46
2022-10-14T22:59:03.516Z,90.58
2022-10-14T23:01:31.679Z,90.25
2022-10-14T23:04:00.972Z,90.28
2022-10-14T23:06:30.182Z,90.35
2022-10-14T23:09:00.592Z,90.33
2022-10-14T23:11:30.101Z,90.30
2022-10-14T23:14:00.290Z,90.30
2022-10-14T23:16:30.960Z,90.30
2022-10-14T23:18:59.467Z,90.22
2022-10-14T23:21:32.084Z,90.06
2022-10-14T23:24:02.881Z,90.15
2022-10-14T23:26:33.315Z,90.14
2022-10-14T23:29:04.040Z,90.09
2022-10-14T23:31:32.748Z,90.05
2022-10-14T23:34:03.335Z,90.20
2022-10-14T23:36:31.297Z,90.28
2022-10-14T23:38:59.573Z,90.00
2022-10-14T23:41:28.017Z,90.03
2022-10-14T23:43:56.831Z,90.03
2022-10-14T23:46:24.669Z,90.28
2022-10-14T23:49:06.690Z,90.16
2022-10-14T23:51:35.842Z,89.96
2022-10-14T23:54:04.540Z,89.94
2022-10-14T23:56:32.638Z,89.82
2022-10-14T23:59:00.540Z,89.83
